createdAt,value
2022-08-22T00:02:00.063Z,100.00
2022-08-22T00:02:48.856Z,100.00
2022-08-22T00:02:54.355Z,100.00
2022-08-22T00:02:58.169Z,100.00
2022-08-22T00:03:00.574Z,100.00
2022-08-22T00:03:01.921Z,100.00
2022-08-22T00:03:10.898Z,100.00
2022-08-22T00:04:37.016Z,100.00
2022-08-22T00:07:32.341Z,100.00
2022-08-22T00:10:04.150Z,100.00
2022-08-22T00:12:47.871Z,100.00
2022-08-22T00:15:42.029Z,100.00
2022-08-22T00:18:12.041Z,100.00
2022-08-22T00:20:55.754Z,100.00
2022-08-22T00:23:39.410Z,100.00
2022-08-22T00:26:31.051Z,100.00
2022-08-22T00:29:01.073Z,100.00
2022-08-22T00:31:44.792Z,100.00
2022-08-22T00:34:17.412Z,100.00
2022-08-22T00:36:52.124Z,100.00
2022-08-22T00:39:35.829Z,100.00
2022-08-22T00:42:09.977Z,100.00
2022-08-22T00:44:53.695Z,100.00
2022-08-22T00:47:27.581Z,100.00
2022-08-22T00:49:55.224Z,100.00
2022-08-22T00:52:33.450Z,100.00
2022-08-22T00:55:17.182Z,100.00
2022-08-22T00:58:00.877Z,100.00
2022-08-22T01:00:30.503Z,100.00
2022-08-22T01:03:09.623Z,100.00
2022-08-22T01:05:54.256Z,100.00
2022-08-22T01:08:22.132Z,100.00
2022-08-22T01:11:05.786Z,100.00
2022-08-22T01:13:50.568Z,100.00
2022-08-22T01:16:24.476Z,100.00
2022-08-22T01:19:06.659Z,100.00
2022-08-22T01:21:57.642Z,100.00
2022-08-22T01:24:28.196Z,100.00
2022-08-22T01:27:11.922Z,100.00
2022-08-22T01:29:42.655Z,100.00
2022-08-22T01:32:27.129Z,100.00
2022-08-22T01:35:10.797Z,100.00
2022-08-22T01:37:54.582Z,100.00
2022-08-22T01:40:53.626Z,100.00
2022-08-22T01:43:59.045Z,100.00
2022-08-22T01:46:26.303Z,100.00
2022-08-22T01:49:10.563Z,100.00
2022-08-22T01:51:54.711Z,100.00
2022-08-22T01:54:38.452Z,100.00
2022-08-22T01:57:08.162Z,100.00
2022-08-22T01:59:42.338Z,100.00
2022-08-22T02:02:26.498Z,100.00
2022-08-22T02:05:10.059Z,100.00
2022-08-22T02:07:53.786Z,100.00
2022-08-22T02:10:36.405Z,100.00
2022-08-22T02:13:23.127Z,100.00
2022-08-22T02:15:56.056Z,100.00
2022-08-22T02:18:26.630Z,100.00
2022-08-22T02:21:05.454Z,100.00
2022-08-22T02:23:43.868Z,100.00
2022-08-22T02:26:16.899Z,100.00
2022-08-22T02:29:01.024Z,100.00
2022-08-22T02:31:28.692Z,100.00
2022-08-22T02:33:58.638Z,100.00
2022-08-22T02:36:29.387Z,100.00
2022-08-22T02:39:03.648Z,100.00
2022-08-22T02:41:37.272Z,100.00
2022-08-22T02:44:15.850Z,100.00
2022-08-22T02:46:47.242Z,100.00
2022-08-22T02:49:27.356Z,100.00
2022-08-22T02:52:02.254Z,100.00
2022-08-22T02:54:38.306Z,100.00
2022-08-22T02:57:14.400Z,100.00
2022-08-22T02:59:59.270Z,100.00
2022-08-22T03:02:32.213Z,100.00
2022-08-22T03:05:01.412Z,100.00
2022-08-22T03:07:41.144Z,100.00
2022-08-22T03:10:11.965Z,100.00
2022-08-22T03:12:42.368Z,100.00
2022-08-22T03:15:16.395Z,100.00
2022-08-22T03:17:50.229Z,100.00
2022-08-22T03:20:33.929Z,100.00
2022-08-22T03:23:21.906Z,100.00
2022-08-22T03:25:55.284Z,100.00
2022-08-22T03:28:39.012Z,100.00
2022-08-22T03:31:27.651Z,100.00
2022-08-22T03:34:11.407Z,100.00
2022-08-22T03:36:39.925Z,100.00
2022-08-22T03:39:30.678Z,100.00
2022-08-22T03:42:10.180Z,100.00
2022-08-22T03:44:37.882Z,100.00
2022-08-22T03:47:21.865Z,100.00
2022-08-22T03:49:59.716Z,100.00
2022-08-22T03:52:34.796Z,100.00
2022-08-22T03:55:09.306Z,100.00
2022-08-22T03:57:54.546Z,100.00
2022-08-22T04:00:39.492Z,100.00
2022-08-22T04:03:13.244Z,100.00
2022-08-22T04:05:58.842Z,100.00
2022-08-22T04:08:43.836Z,100.00
2022-08-22T04:11:21.545Z,100.00
2022-08-22T04:13:55.972Z,100.00
2022-08-22T04:16:26.309Z,100.00
2022-08-22T04:19:09.875Z,100.00
2022-08-22T04:21:53.613Z,100.00
2022-08-22T04:24:22.253Z,100.00
2022-08-22T04:26:57.665Z,100.00
2022-08-22T04:29:30.788Z,100.00
2022-08-22T04:32:06.635Z,100.00
2022-08-22T04:34:37.989Z,100.00
2022-08-22T04:37:18.554Z,100.00
2022-08-22T04:39:56.228Z,100.00
2022-08-22T04:42:40.396Z,100.00
2022-08-22T04:45:14.224Z,100.00
2022-08-22T04:47:53.905Z,100.00
2022-08-22T04:50:31.755Z,100.00
2022-08-22T04:53:16.394Z,100.00
2022-08-22T04:56:03.026Z,100.00
2022-08-22T04:58:50.462Z,100.00
2022-08-22T05:01:26.141Z,100.00
2022-08-22T05:04:03.018Z,100.00
2022-08-22T05:06:32.930Z,100.00
2022-08-22T05:09:04.160Z,100.00
2022-08-22T05:11:33.482Z,100.00
2022-08-22T05:14:04.079Z,100.00
2022-08-22T05:16:38.675Z,100.00
2022-08-22T05:19:12.003Z,100.00
2022-08-22T05:21:43.339Z,100.00
2022-08-22T05:24:13.972Z,100.00
2022-08-22T05:26:43.694Z,100.00
2022-08-22T05:29:13.986Z,100.00
2022-08-22T05:31:43.909Z,100.00
2022-08-22T05:34:16.698Z,100.00
2022-08-22T05:36:48.461Z,100.00
2022-08-22T05:39:18.913Z,100.00
2022-08-22T05:41:48.081Z,100.00
2022-08-22T05:44:18.035Z,100.00
2022-08-22T05:46:49.869Z,100.00
2022-08-22T05:49:19.636Z,100.00
2022-08-22T05:51:49.934Z,100.00
2022-08-22T05:54:20.119Z,100.00
2022-08-22T05:56:53.013Z,100.00
2022-08-22T05:59:26.007Z,100.00
2022-08-22T06:02:00.806Z,100.00
2022-08-22T06:04:34.631Z,100.00
2022-08-22T06:07:19.269Z,100.00
2022-08-22T06:09:46.896Z,100.00
2022-08-22T06:12:21.847Z,100.00
2022-08-22T06:14:53.660Z,100.00
2022-08-22T06:17:25.125Z,100.00
2022-08-22T06:19:53.888Z,100.00
2022-08-22T06:22:24.924Z,100.00
2022-08-22T06:24:54.402Z,100.00
2022-08-22T06:27:23.952Z,100.00
2022-08-22T06:29:56.245Z,100.00
2022-08-22T06:32:53.782Z,100.00
2022-08-22T06:35:50.443Z,100.00
2022-08-22T06:38:20.255Z,100.00
2022-08-22T06:40:49.760Z,100.00
2022-08-22T06:43:18.024Z,100.00
2022-08-22T06:45:46.922Z,100.00
2022-08-22T06:48:21.246Z,100.00
2022-08-22T06:50:52.686Z,100.00
2022-08-22T06:53:20.349Z,100.00
2022-08-22T06:55:51.011Z,100.00
2022-08-22T06:58:22.753Z,100.00
2022-08-22T07:01:02.119Z,100.00
2022-08-22T07:03:43.781Z,100.00
2022-08-22T07:06:15.739Z,100.00
2022-08-22T07:08:44.034Z,100.00
2022-08-22T07:11:11.761Z,100.00
2022-08-22T07:13:43.188Z,100.00
2022-08-22T07:16:10.929Z,100.00
2022-08-22T07:18:48.915Z,100.00
2022-08-22T07:21:24.996Z,100.00
2022-08-22T07:23:53.959Z,100.00
2022-08-22T07:26:38.137Z,100.00
2022-08-22T07:29:21.826Z,100.00
2022-08-22T07:31:57.498Z,100.00
2022-08-22T07:34:41.239Z,100.00
2022-08-22T07:37:25.178Z,100.00
2022-08-22T07:40:09.156Z,100.00
2022-08-22T07:42:44.281Z,100.00
2022-08-22T07:45:21.042Z,100.00
2022-08-22T07:48:04.670Z,100.00
2022-08-22T07:50:37.176Z,100.00
2022-08-22T07:53:18.724Z,100.00
2022-08-22T07:55:49.392Z,100.00
2022-08-22T07:58:18.580Z,100.00
2022-08-22T08:00:48.472Z,100.00
2022-08-22T08:03:16.464Z,100.00
2022-08-22T08:05:44.882Z,100.00
2022-08-22T08:08:20.855Z,100.00
2022-08-22T08:10:50.703Z,100.00
2022-08-22T08:13:22.419Z,100.00
2022-08-22T08:15:50.904Z,100.00
2022-08-22T08:18:21.937Z,100.00
2022-08-22T08:20:57.592Z,100.00
2022-08-22T08:23:27.953Z,100.00
2022-08-22T08:26:01.678Z,100.00
2022-08-22T08:28:36.976Z,100.00
2022-08-22T08:31:21.571Z,100.00
2022-08-22T08:33:51.386Z,100.00
2022-08-22T08:36:26.230Z,100.00
2022-08-22T08:38:57.413Z,100.00
2022-08-22T08:41:25.189Z,100.00
2022-08-22T08:43:52.888Z,100.00
2022-08-22T08:46:36.541Z,100.00
2022-08-22T08:49:06.656Z,100.00
2022-08-22T08:51:50.195Z,100.00
2022-08-22T08:54:21.164Z,100.00
2022-08-22T08:56:56.930Z,100.00
2022-08-22T08:59:27.487Z,100.00
2022-08-22T09:02:13.905Z,100.00
2022-08-22T09:05:05.573Z,100.00
2022-08-22T09:07:33.261Z,99.92
2022-08-22T09:10:21.348Z,99.92
2022-08-22T09:13:12.135Z,100.00
2022-08-22T09:15:42.160Z,99.72
2022-08-22T09:18:10.545Z,98.22
2022-08-22T09:20:46.446Z,98.86
2022-08-22T09:23:17.343Z,99.29
2022-08-22T09:25:45.266Z,99.39
2022-08-22T09:28:13.724Z,99.08
2022-08-22T09:30:58.105Z,99.65
2022-08-22T09:33:33.905Z,99.79
2022-08-22T09:36:05.618Z,99.12
2022-08-22T09:38:49.381Z,99.55
2022-08-22T09:41:27.136Z,99.64
2022-08-22T09:44:12.029Z,99.26
2022-08-22T09:46:39.959Z,99.35
2022-08-22T09:49:16.340Z,99.05
2022-08-22T09:51:51.926Z,99.13
2022-08-22T09:54:31.458Z,99.12
2022-08-22T09:57:00.797Z,99.20
2022-08-22T09:59:45.584Z,99.13
2022-08-22T10:02:15.508Z,98.79
2022-08-22T10:04:55.197Z,98.30
2022-08-22T10:07:25.968Z,98.64
2022-08-22T10:10:11.245Z,98.47
2022-08-22T10:12:55.646Z,97.55
2022-08-22T10:15:32.258Z,97.30
2022-08-22T10:18:02.931Z,95.83
2022-08-22T10:20:36.080Z,96.82
2022-08-22T10:23:21.126Z,96.35
2022-08-22T10:25:55.455Z,96.36
2022-08-22T10:28:43.284Z,96.39
2022-08-22T10:31:27.291Z,94.82
2022-08-22T10:33:55.005Z,96.33
2022-08-22T10:36:30.626Z,96.54
2022-08-22T10:38:59.885Z,95.96
2022-08-22T10:41:27.550Z,96.18
2022-08-22T10:44:11.071Z,95.35
2022-08-22T10:46:42.234Z,95.97
2022-08-22T10:49:28.970Z,95.49
2022-08-22T10:52:13.655Z,95.57
2022-08-22T10:54:51.176Z,93.38
2022-08-22T10:57:36.278Z,92.20
2022-08-22T11:00:08.328Z,90.76
2022-08-22T11:02:44.973Z,93.07
2022-08-22T11:05:28.869Z,92.40
2022-08-22T11:08:12.662Z,92.27
2022-08-22T11:10:52.217Z,91.58
2022-08-22T11:13:35.934Z,88.21
2022-08-22T11:16:19.585Z,90.39
2022-08-22T11:19:01.859Z,91.30
2022-08-22T11:21:41.035Z,90.18
2022-08-22T11:24:34.725Z,90.02
2022-08-22T11:27:12.955Z,89.66
2022-08-22T11:29:56.976Z,89.79
2022-08-22T11:32:34.168Z,90.64
2022-08-22T11:35:20.778Z,89.66
2022-08-22T11:37:58.655Z,90.05
2022-08-22T11:40:42.738Z,89.85
2022-08-22T11:43:26.970Z,90.27
2022-08-22T11:46:02.949Z,88.94
2022-08-22T11:48:38.876Z,89.47
2022-08-22T11:51:34.127Z,90.35
2022-08-22T11:54:31.011Z,87.67
2022-08-22T11:57:08.173Z,88.44
2022-08-22T11:59:55.668Z,88.74
2022-08-22T12:02:34.781Z,88.93
2022-08-22T12:05:10.726Z,87.58
2022-08-22T12:07:53.597Z,87.55
2022-08-22T12:10:25.537Z,84.99
2022-08-22T12:12:56.290Z,83.67
2022-08-22T12:15:28.934Z,85.56
2022-08-22T12:18:18.000Z,84.43
2022-08-22T12:20:49.065Z,81.60
2022-08-22T12:23:19.901Z,80.41
2022-08-22T12:26:03.626Z,82.99
2022-08-22T12:28:39.996Z,84.02
2022-08-22T12:31:24.134Z,83.26
2022-08-22T12:34:07.829Z,81.83
2022-08-22T12:36:53.667Z,81.58
2022-08-22T12:39:24.324Z,78.48
2022-08-22T12:42:08.097Z,76.50
2022-08-22T12:44:51.841Z,76.92
2022-08-22T12:47:35.623Z,77.83
2022-08-22T12:50:13.108Z,77.03
2022-08-22T12:52:57.178Z,75.97
2022-08-22T12:55:41.306Z,75.20
2022-08-22T12:58:15.545Z,73.88
2022-08-22T13:00:47.245Z,76.08
2022-08-22T13:03:21.426Z,74.93
2022-08-22T13:05:56.774Z,75.17
2022-08-22T13:08:35.769Z,74.89
2022-08-22T13:11:09.950Z,77.09
2022-08-22T13:14:00.816Z,72.41
2022-08-22T13:16:49.085Z,72.60
2022-08-22T13:19:22.158Z,71.54
2022-08-22T13:21:54.008Z,71.25
2022-08-22T13:24:38.603Z,71.12
2022-08-22T13:27:14.864Z,71.08
2022-08-22T13:29:48.418Z,71.24
2022-08-22T13:32:23.485Z,71.11
2022-08-22T13:34:56.140Z,70.04
2022-08-22T13:37:29.220Z,73.61
2022-08-22T13:40:00.893Z,73.15
2022-08-22T13:42:31.425Z,73.84
2022-08-22T13:45:05.591Z,73.43
2022-08-22T13:47:35.774Z,73.16
2022-08-22T13:50:11.112Z,73.55
2022-08-22T13:52:42.956Z,74.78
2022-08-22T13:55:18.663Z,74.46
2022-08-22T13:57:52.017Z,74.62
2022-08-22T14:00:28.784Z,75.51
2022-08-22T14:03:13.018Z,75.57
2022-08-22T14:06:35.313Z,75.78
2022-08-22T14:08:48.833Z,75.41
2022-08-22T14:11:32.683Z,75.11
2022-08-22T14:14:03.094Z,75.02
2022-08-22T14:16:46.720Z,75.04
2022-08-22T14:19:23.634Z,75.25
2022-08-22T14:22:01.000Z,74.28
2022-08-22T14:24:33.006Z,73.78
2022-08-22T14:27:08.320Z,75.86
2022-08-22T14:29:52.039Z,76.49
2022-08-22T14:32:26.765Z,76.57
2022-08-22T14:35:10.698Z,75.92
2022-08-22T14:37:53.387Z,76.34
2022-08-22T14:40:37.378Z,75.96
2022-08-22T14:43:07.811Z,75.96
2022-08-22T14:45:38.565Z,76.37
2022-08-22T14:48:30.049Z,76.92
2022-08-22T14:51:04.042Z,76.58
2022-08-22T14:53:34.404Z,76.09
2022-08-22T14:56:05.318Z,77.03
2022-08-22T14:58:36.123Z,76.45
2022-08-22T15:01:09.840Z,76.13
2022-08-22T15:03:39.980Z,76.95
2022-08-22T15:06:09.924Z,77.56
2022-08-22T15:08:42.341Z,77.46
2022-08-22T15:11:21.039Z,77.74
2022-08-22T15:13:51.158Z,76.99
2022-08-22T15:16:22.103Z,73.62
2022-08-22T15:18:51.852Z,73.53
2022-08-22T15:21:28.255Z,68.59
2022-08-22T15:24:01.397Z,67.29
2022-08-22T15:26:34.439Z,66.69
2022-08-22T15:29:05.394Z,64.95
2022-08-22T15:31:34.458Z,63.80
2022-08-22T15:34:19.545Z,65.36
2022-08-22T15:37:09.087Z,65.62
2022-08-22T15:39:58.609Z,67.50
2022-08-22T15:42:30.476Z,63.72
2022-08-22T15:44:59.776Z,62.59
2022-08-22T15:47:43.932Z,62.89
2022-08-22T15:50:15.302Z,59.09
2022-08-22T15:53:04.893Z,58.87
2022-08-22T15:55:35.367Z,58.26
2022-08-22T15:58:06.740Z,55.42
2022-08-22T16:00:43.893Z,56.29
2022-08-22T16:03:29.096Z,57.89
2022-08-22T16:05:59.751Z,57.79
2022-08-22T16:08:33.017Z,58.93
2022-08-22T16:11:01.136Z,59.89
2022-08-22T16:13:33.459Z,60.40
2022-08-22T16:16:07.081Z,60.73
2022-08-22T16:18:39.048Z,60.75
2022-08-22T16:21:11.012Z,61.15
2022-08-22T16:23:56.388Z,61.77
2022-08-22T16:26:24.075Z,62.04
2022-08-22T16:28:58.218Z,62.57
2022-08-22T16:31:34.885Z,63.00
2022-08-22T16:34:18.733Z,64.15
2022-08-22T16:37:01.459Z,64.37
2022-08-22T16:39:32.110Z,64.58
2022-08-22T16:42:15.794Z,64.95
2022-08-22T16:44:48.224Z,65.45
2022-08-22T16:47:21.216Z,65.88
2022-08-22T16:49:48.915Z,66.24
2022-08-22T16:52:33.412Z,66.49
2022-08-22T16:55:01.305Z,67.16
2022-08-22T16:58:05.098Z,67.85
2022-08-22T17:00:41.690Z,68.42
2022-08-22T17:03:12.422Z,68.72
2022-08-22T17:05:46.103Z,69.22
2022-08-22T17:08:29.725Z,69.27
2022-08-22T17:11:13.361Z,69.35
2022-08-22T17:13:44.089Z,70.10
2022-08-22T17:16:27.820Z,70.34
2022-08-22T17:19:11.388Z,70.38
2022-08-22T17:21:51.731Z,70.81
2022-08-22T17:24:31.839Z,71.14
2022-08-22T17:27:03.009Z,71.21
2022-08-22T17:29:36.556Z,71.32
2022-08-22T17:32:21.287Z,71.89
2022-08-22T17:35:04.863Z,71.81
2022-08-22T17:37:44.819Z,72.36
2022-08-22T17:40:28.624Z,73.07
2022-08-22T17:42:56.342Z,73.86
2022-08-22T17:45:34.264Z,73.66
2022-08-22T17:48:08.244Z,73.72
2022-08-22T17:50:39.076Z,74.81
2022-08-22T17:53:16.259Z,74.97
2022-08-22T17:56:00.285Z,75.44
2022-08-22T17:58:37.755Z,76.02
2022-08-22T18:01:20.155Z,76.24
2022-08-22T18:03:58.224Z,76.15
2022-08-22T18:06:35.465Z,76.75
2022-08-22T18:09:14.881Z,76.23
2022-08-22T18:11:42.923Z,76.30
2022-08-22T18:14:26.678Z,76.85
2022-08-22T18:16:55.269Z,77.11
2022-08-22T18:19:22.935Z,76.92
2022-08-22T18:22:06.650Z,77.18
2022-08-22T18:24:51.375Z,77.13
2022-08-22T18:27:35.774Z,77.47
2022-08-22T18:30:15.364Z,77.20
2022-08-22T18:32:54.899Z,77.56
2022-08-22T18:35:39.708Z,77.02
2022-08-22T18:38:19.240Z,76.98
2022-08-22T18:40:55.738Z,76.85
2022-08-22T18:43:40.346Z,77.22
2022-08-22T18:46:24.004Z,77.15
2022-08-22T18:49:14.252Z,77.45
2022-08-22T18:51:41.454Z,77.61
2022-08-22T18:54:10.973Z,78.39
2022-08-22T18:56:54.744Z,78.19
2022-08-22T18:59:25.463Z,78.35
2022-08-22T19:02:09.706Z,78.46
2022-08-22T19:04:43.204Z,78.67
2022-08-22T19:07:26.830Z,78.79
2022-08-22T19:10:11.098Z,78.86
2022-08-22T19:12:49.472Z,78.68
2022-08-22T19:15:33.340Z,78.75
2022-08-22T19:18:03.908Z,78.99
2022-08-22T19:20:48.441Z,79.15
2022-08-22T19:23:33.106Z,79.07
2022-08-22T19:26:16.814Z,79.39
2022-08-22T19:28:44.581Z,79.47
2022-08-22T19:31:18.619Z,79.25
2022-08-22T19:33:48.852Z,79.55
2022-08-22T19:36:32.555Z,79.23
2022-08-22T19:39:04.022Z,79.22
2022-08-22T19:41:47.675Z,79.41
2022-08-22T19:44:18.895Z,79.86
2022-08-22T19:47:02.348Z,79.63
2022-08-22T19:49:32.387Z,79.92
2022-08-22T19:52:16.088Z,79.98
2022-08-22T19:55:04.333Z,80.04
2022-08-22T19:57:42.446Z,80.33
2022-08-22T20:00:20.254Z,80.21
2022-08-22T20:03:03.952Z,80.52
2022-08-22T20:05:56.647Z,80.53
2022-08-22T20:08:45.832Z,80.64
2022-08-22T20:11:29.541Z,80.68
2022-08-22T20:14:13.297Z,80.81
2022-08-22T20:16:57.140Z,80.97
2022-08-22T20:19:42.897Z,81.27
2022-08-22T20:22:15.914Z,81.35
2022-08-22T20:24:58.517Z,81.84
2022-08-22T20:27:26.265Z,81.60
2022-08-22T20:30:05.974Z,81.49
2022-08-22T20:32:41.609Z,81.61
2022-08-22T20:35:12.227Z,81.74
2022-08-22T20:38:06.354Z,82.17
2022-08-22T20:40:55.306Z,82.28
2022-08-22T20:43:34.242Z,82.39
2022-08-22T20:46:01.899Z,82.65
2022-08-22T20:48:37.258Z,82.66
2022-08-22T20:51:06.809Z,82.81
2022-08-22T20:53:35.026Z,82.90
2022-08-22T20:56:05.309Z,82.97
2022-08-22T20:58:35.722Z,83.57
2022-08-22T21:01:06.837Z,83.14
2022-08-22T21:03:34.619Z,83.45
2022-08-22T21:06:29.243Z,83.47
2022-08-22T21:09:28.857Z,83.60
2022-08-22T21:11:59.909Z,83.56
2022-08-22T21:14:32.605Z,83.69
2022-08-22T21:17:16.741Z,83.66
2022-08-22T21:19:44.588Z,83.95
2022-08-22T21:22:17.260Z,83.94
2022-08-22T21:24:45.619Z,83.92
2022-08-22T21:27:21.486Z,84.29
2022-08-22T21:29:49.265Z,84.14
2022-08-22T21:32:23.175Z,84.47
2022-08-22T21:34:51.145Z,84.58
2022-08-22T21:37:29.299Z,84.61
2022-08-22T21:40:00.178Z,84.95
2022-08-22T21:42:30.843Z,85.41
2022-08-22T21:45:10.994Z,85.39
2022-08-22T21:47:40.274Z,85.48
2022-08-22T21:50:24.241Z,85.88
2022-08-22T21:52:55.073Z,85.68
2022-08-22T21:55:27.849Z,85.99
2022-08-22T21:58:03.352Z,85.79
2022-08-22T22:00:48.828Z,86.17
2022-08-22T22:03:19.310Z,86.19
2022-08-22T22:05:49.142Z,86.07
2022-08-22T22:08:17.394Z,86.32
2022-08-22T22:10:46.856Z,86.55
2022-08-22T22:13:14.982Z,86.68
2022-08-22T22:15:46.015Z,86.88
2022-08-22T22:18:15.011Z,86.87
2022-08-22T22:20:43.805Z,86.68
2022-08-22T22:23:11.781Z,86.82
2022-08-22T22:25:42.231Z,86.99
2022-08-22T22:28:12.947Z,87.55
2022-08-22T22:30:41.266Z,87.76
2022-08-22T22:33:09.500Z,87.99
2022-08-22T22:35:39.112Z,87.95
2022-08-22T22:38:07.582Z,88.17
2022-08-22T22:40:35.501Z,88.23
2022-08-22T22:43:03.575Z,88.60
2022-08-22T22:45:31.605Z,88.61
2022-08-22T22:47:59.564Z,88.81
2022-08-22T22:50:27.624Z,89.07
2022-08-22T22:52:55.416Z,88.86
2022-08-22T22:55:24.448Z,88.93
2022-08-22T22:57:59.130Z,89.08
2022-08-22T23:00:30.738Z,89.38
2022-08-22T23:03:03.900Z,89.10
2022-08-22T23:05:32.769Z,89.51
2022-08-22T23:08:01.144Z,89.40
2022-08-22T23:10:29.659Z,89.36
2022-08-22T23:12:57.938Z,89.20
2022-08-22T23:15:25.993Z,89.43
2022-08-22T23:17:54.045Z,89.42
2022-08-22T23:20:21.795Z,89.61
2022-08-22T23:22:49.946Z,89.61
2022-08-22T23:25:17.792Z,89.80
2022-08-22T23:27:52.099Z,89.96
2022-08-22T23:30:20.844Z,90.26
2022-08-22T23:32:48.600Z,90.57
2022-08-22T23:35:16.325Z,90.76
2022-08-22T23:37:44.025Z,90.66
2022-08-22T23:40:12.044Z,91.19
2022-08-22T23:42:39.842Z,90.92
2022-08-22T23:45:07.855Z,91.02
2022-08-22T23:47:35.562Z,91.28
2022-08-22T23:50:06.230Z,91.28
2022-08-22T23:52:34.232Z,91.61
2022-08-22T23:55:02.097Z,91.47
2022-08-22T23:57:29.763Z,91.56
2022-08-22T23:59:58.713Z,91.69
